Etusivu
METAR-TAF:

METAR-TAF

Lentoasemat :

Vojens, Tanska

Leveyspiiri: 55-14N, Pituuspiiri: 009-16E, korkeus merenpinnasta: 43 m

Tämänhetkinen sää

Tämä raportti tehtiin 17 minuuttia sitten, kello 10.50 UTC
Tuuli 6 kn idästä, vaihdellen pohjoisen/koillisen ja kaakon välillä
Lämpötila 17°C
Kosteus 29%
Ilmanpaine 1034 hPa
Näkyvyys 10 km tai enemmän
ei pilviä alle 1500 m:ssä eikä cumulonimbus-pilviä

METAR: EKSP 201050Z 09006KT 030V130 CAVOK 17/M01 Q1034 RMK SCT200

Aika: 13:07 (11:07 UTC)

Sääennuste

Tämä raportti tehtiin 2 tuntia ja 49 minuuttia sitten, kello 08.18 UTC
Ennuste voimassa 20. päivästä klo 09 UTC - 21. päivään klo 09 UTC
Tuuli 5 kn eri suunnista
Näkyvyys 10 km tai enemmän
Muutamia pilviä 20000 ft:n korkeudessa

TAF: EKSP 200818Z 2009/2109 VRB05KT 9999 FEW200

Säähavainnot ja -ennusteet yli 4000 lentoasemalta (METAR- ja TAF-raportit).

Käytössä olevat sääasemat on merkitty karttaan keltaisilla ja punaisilla pisteillä.

Aseta hiiri pisteen päälle nähdäksesi sääaseman nimen.

Klikkaa sitten nähdäksesi säähavainnot ja -ennusteet.

Kartan vaihtaminen: klikkaa mustalla rastilla varustettuja vihreitä pisteitä, niin voit zoomata sisään; viivalla varustettua vihreää pistettä, niin voit zoomata ulos tai vihreitä nuolia, niin pääset viereisille kartoille.


METAR-TAF: